Time;durP1;ratioP1;P1;durP2;ratioP2;P2;SDS_P1;SDS_P2;PMS_P1;PMS_P2;Temp;Humidity;BMP_temperature;BMP_pressure;BME280_temperature;BME280_humidity;BME280_pressure;Samples;Min_cycle;Max_cycle;Signal;HPM_P1;HPM_P2
2023/10/12 00:03:33;;;;;;;14.50;5.40;;;;;;;18.89;93.74;99788.52;182303;1238;46109;-84
2023/10/12 00:07:38;;;;;;;9.60;4.90;;;;;;;18.85;93.64;99782.58;182642;1239;46181;-84
2023/10/12 00:11:45;;;;;;;6.90;4.70;;;;;;;18.78;93.44;99776.66;182586;1238;58000;-84
2023/10/12 00:15:47;;;;;;;11.90;6.90;;;;;;;18.72;93.37;99775.90;182703;1238;45950;-84
2023/10/12 00:19:53;;;;;;;15.80;5.80;;;;;;;18.67;93.27;99774.94;182322;1235;46061;-84
2023/10/12 00:23:58;;;;;;;8.60;4.80;;;;;;;18.60;93.68;99778.52;182526;1235;45934;-84
2023/10/12 00:28:01;;;;;;;11.80;5.60;;;;;;;18.56;93.92;99774.66;182244;1239;46084;-84
2023/10/12 00:32:06;;;;;;;10.50;5.80;;;;;;;18.52;94.05;99772.44;182712;1235;57789;-85
2023/10/12 00:36:21;;;;;;;9.30;5.40;;;;;;;18.50;94.06;99772.20;182694;1239;46184;-84
2023/10/12 00:40:29;;;;;;;8.20;6.10;;;;;;;18.45;94.20;99766.75;182525;1235;46543;-84
2023/10/12 00:44:34;;;;;;;11.80;5.60;;;;;;;18.39;94.46;99762.34;182693;1237;46184;-84
2023/10/12 00:48:39;;;;;;;10.20;5.40;;;;;;;18.35;94.69;99754.73;182209;1237;46182;-85
2023/10/12 00:57:09;;;;;;;10.00;5.10;;;;;;;18.25;95.08;99744.09;182202;1235;46012;-84
2023/10/12 01:01:11;;;;;;;15.40;6.30;;;;;;;18.17;95.58;99731.33;182258;1235;46104;-84
2023/10/12 01:05:17;;;;;;;11.90;5.20;;;;;;;18.13;95.98;99723.20;182765;1235;45916;-83
2023/10/12 01:09:20;;;;;;;;;;;;;;;18.09;96.48;99714.82;182598;1235;46077;-84
2023/10/12 01:13:21;;;;;;;10.20;6.00;;;;;;;18.06;96.91;99703.05;182603;1237;57885;-84
2023/10/12 01:17:29;;;;;;;17.50;6.20;;;;;;;18.02;97.02;99703.31;182155;1235;45935;-84
2023/10/12 01:21:35;;;;;;;13.40;6.90;;;;;;;17.97;97.52;99704.61;182288;1238;46088;-84
2023/10/12 01:25:40;;;;;;;8.20;5.60;;;;;;;17.95;97.84;99708.30;182418;1238;46043;-84
2023/10/12 01:29:42;;;;;;;11.40;6.30;;;;;;;17.94;97.78;99710.83;182815;1239;46063;-85
2023/10/12 01:33:44;;;;;;;11.20;5.90;;;;;;;17.91;98.04;99703.63;182394;1235;58380;-84
2023/10/12 01:37:55;;;;;;;21.90;5.90;;;;;;;17.91;98.04;99704.34;182406;1235;46067;-84
2023/10/12 01:41:57;;;;;;;10.30;6.40;;;;;;;17.91;97.94;99699.11;182610;1235;46176;-83
2023/10/12 01:46:03;;;;;;;8.90;5.50;;;;;;;17.88;97.75;99691.01;182789;1236;44737;-84
2023/10/12 01:50:07;;;;;;;;;;;;;;;17.82;97.79;99688.58;183064;1236;45961;-84
2023/10/12 01:54:12;;;;;;;12.10;6.50;;;;;;;17.80;98.09;99692.86;181997;1235;59007;-83
2023/10/12 01:58:23;;;;;;;10.30;5.60;;;;;;;17.77;98.05;99689.88;181399;1239;46124;-84
2023/10/12 02:02:25;;;;;;;11.00;6.70;;;;;;;17.70;98.10;99694.71;181616;1235;45020;-83
2023/10/12 02:06:29;;;;;;;8.30;4.60;;;;;;;17.68;98.05;99697.75;181410;1238;46061;-83
2023/10/12 02:10:43;;;;;;;10.70;6.60;;;;;;;17.65;98.19;99700.77;181601;1235;46018;-83
2023/10/12 02:14:46;;;;;;;12.40;5.80;;;;;;;17.64;98.25;99702.38;182030;1237;57990;-83
2023/10/12 02:18:47;;;;;;;9.60;6.00;;;;;;;17.62;98.37;99703.13;181858;1235;46079;-84
2023/10/12 02:22:52;;;;;;;10.10;5.90;;;;;;;17.62;98.10;99707.71;181916;1238;46555;-83
2023/10/12 02:26:55;;;;;;;10.10;6.10;;;;;;;17.56;98.13;99700.45;182178;1235;46117;-84
2023/10/12 02:30:56;;;;;;;13.90;7.70;;;;;;;17.52;98.00;99701.93;181693;1238;46083;-83
2023/10/12 02:35:00;;;;;;;10.70;5.80;;;;;;;17.47;98.29;99693.11;181888;1235;56919;-84
2023/10/12 02:39:10;;;;;;;11.50;5.80;;;;;;;17.39;98.19;99689.17;181998;1238;45968;-83
2023/10/12 02:43:15;;;;;;;9.10;5.60;;;;;;;17.32;98.01;99687.98;181553;1239;46076;-83
2023/10/12 02:47:22;;;;;;;16.90;7.00;;;;;;;17.30;97.96;99690.16;181520;1238;46085;-84
2023/10/12 02:51:24;;;;;;;6.40;5.60;;;;;;;17.26;97.51;99687.54;182141;1235;46015;-83
2023/10/12 02:55:33;;;;;;;8.70;5.70;;;;;;;17.22;97.06;99686.37;182408;1235;57347;-84
2023/10/12 02:59:38;;;;;;;7.40;4.80;;;;;;;17.20;96.63;99689.82;182497;1237;45941;-84
2023/10/12 03:03:50;;;;;;;9.00;4.70;;;;;;;17.17;96.32;99691.36;182588;1239;45973;-85
2023/10/12 03:07:53;;;;;;;10.70;5.70;;;;;;;17.18;96.33;99688.16;182886;1238;46095;-85
2023/10/12 03:11:56;;;;;;;15.80;5.70;;;;;;;17.16;95.75;99682.06;182501;1235;46205;-85
2023/10/12 03:16:03;;;;;;;11.00;5.50;;;;;;;17.15;95.91;99675.63;182623;1235;59375;-85
2023/10/12 03:20:28;;;;;;;10.20;5.40;;;;;;;17.14;96.14;99673.02;182789;1237;45980;-83
2023/10/12 03:24:43;;;;;;;6.30;4.90;;;;;;;17.13;95.84;99671.92;183393;1235;45935;-83
2023/10/12 03:28:46;;;;;;;14.90;7.20;;;;;;;17.14;95.46;99671.36;182316;1238;46079;-82
2023/10/12 03:32:49;;;;;;;7.80;4.90;;;;;;;17.15;95.27;99666.05;182212;1236;46073;-84
2023/10/12 03:36:51;;;;;;;7.50;4.00;;;;;;;17.14;95.17;99668.85;183453;1235;57858;-84
2023/10/12 03:41:46;;;;;;;10.00;5.00;;;;;;;17.15;94.84;99667.49;183272;1234;46192;-84
2023/10/12 03:45:27;;;;;;;12.90;5.50;;;;;;;17.15;94.65;99671.13;182946;1235;46041;-84
2023/10/12 03:49:32;;;;;;;6.10;4.50;;;;;;;17.11;94.81;99675.38;183630;1237;46718;-84
2023/10/12 03:53:45;;;;;;;9.10;5.40;;;;;;;17.07;94.99;99672.21;182750;1236;46053;-83
2023/10/12 03:58:06;;;;;;;5.10;4.00;;;;;;;17.04;95.27;99670.27;182815;1239;57769;-83
2023/10/12 04:02:15;;;;;;;8.60;5.20;;;;;;;16.99;95.12;99673.04;182253;1239;46110;-83
2023/10/12 04:06:23;;;;;;;14.90;5.20;;;;;;;16.95;95.27;99674.81;182613;1239;46102;-84
2023/10/12 04:14:55;;;;;;;11.80;5.40;;;;;;;16.85;95.50;99686.34;182355;1235;45931;-84
2023/10/12 04:23:49;;;;;;;9.60;5.70;;;;;;;16.76;96.11;99682.35;182491;1235;46402;-84
2023/10/12 04:27:44;;;;;;;7.60;4.80;;;;;;;16.72;96.19;99684.20;182142;1238;46067;-84
2023/10/12 04:39:56;;;;;;;10.30;4.90;;;;;;;16.68;96.93;99679.95;182800;1236;56981;-84
2023/10/12 04:44:25;;;;;;;8.80;5.90;;;;;;;16.71;97.37;99681.12;182786;1238;45944;-84
2023/10/12 04:48:31;;;;;;;9.30;5.40;;;;;;;16.76;97.35;99686.11;182970;1238;46221;-85
2023/10/12 04:52:33;;;;;;;9.30;5.40;;;;;;;16.80;97.44;99686.85;182624;1236;45964;-85
2023/10/12 04:56:36;;;;;;;13.50;6.00;;;;;;;16.86;96.81;99688.84;182679;1237;45937;-84
2023/10/12 05:00:55;;;;;;;7.80;5.10;;;;;;;16.91;96.56;99686.67;182544;1235;56991;-84
2023/10/12 05:09:04;;;;;;;6.60;4.10;;;;;;;17.03;96.09;99688.64;182641;1235;44651;-84
2023/10/12 05:13:07;;;;;;;12.50;4.80;;;;;;;17.12;95.79;99691.88;182410;1239;46535;-84
2023/10/12 05:17:09;;;;;;;7.90;5.10;;;;;;;17.20;95.00;99690.80;182477;1239;46003;-84
2023/10/12 05:21:11;;;;;;;7.20;6.00;;;;;;;17.27;94.84;99697.98;182708;1238;56920;-84
2023/10/12 05:25:13;;;;;;;5.80;4.40;;;;;;;17.34;95.22;99699.52;182456;1235;45945;-84
2023/10/12 05:37:48;;;;;;;15.00;6.10;;;;;;;17.60;95.44;99714.18;182556;1235;46002;-84
2023/10/12 05:41:56;;;;;;;13.20;3.80;;;;;;;17.68;95.30;99715.91;182173;1238;58565;-84
2023/10/12 05:46:01;;;;;;;9.00;4.10;;;;;;;17.73;94.74;99711.89;182515;1236;46164;-84
2023/10/12 05:50:05;;;;;;;9.10;4.00;;;;;;;17.78;94.77;99720.92;183198;1237;45973;-84
2023/10/12 05:54:07;;;;;;;10.30;4.90;;;;;;;17.87;95.24;99734.06;182660;1239;46199;-84
2023/10/12 05:58:11;;;;;;;9.00;4.50;;;;;;;17.96;95.26;99740.48;182393;1235;45975;-84
2023/10/12 06:02:17;;;;;;;7.80;4.60;;;;;;;18.03;95.85;99746.44;182400;1236;59406;-83
2023/10/12 06:06:20;;;;;;;14.20;5.50;;;;;;;18.07;95.94;99754.06;182910;1239;45992;-84
2023/10/12 06:10:23;;;;;;;8.10;5.10;;;;;;;18.12;96.44;99755.61;182585;1239;46121;-83
2023/10/12 06:14:25;;;;;;;9.60;5.50;;;;;;;18.22;96.50;99757.80;182303;1235;45958;-84
2023/10/12 06:18:30;;;;;;;6.90;4.50;;;;;;;18.32;97.14;99758.01;182047;1238;46172;-84
2023/10/12 06:22:33;;;;;;;7.40;5.10;;;;;;;18.43;97.17;99756.86;181984;1239;297180;-84
2023/10/12 06:26:35;;;;;;;12.20;5.30;;;;;;;18.56;97.78;99761.70;182476;1235;45595;-83
2023/10/12 06:30:37;;;;;;;10.80;5.20;;;;;;;18.70;96.63;99762.30;182173;1236;45995;-84
2023/10/12 06:34:40;;;;;;;17.50;4.60;;;;;;;18.83;96.45;99768.62;182211;1235;46005;-84
2023/10/12 06:47:40;;;;;;;10.90;4.70;;;;;;;19.17;92.92;99782.39;182680;1235;46124;-83
2023/10/12 06:51:43;;;;;;;7.00;5.00;;;;;;;19.35;93.05;99787.72;182374;1235;46609;-84
2023/10/12 06:55:57;;;;;;;8.00;4.40;;;;;;;19.47;92.12;99795.85;183156;1239;46243;-84
2023/10/12 07:04:01;;;;;;;9.40;4.60;;;;;;;19.71;91.57;99815.69;182240;1238;57545;-84
2023/10/12 07:08:15;;;;;;;10.90;4.70;;;;;;;19.76;91.60;99818.50;182403;1234;46411;-84
2023/10/12 07:12:20;;;;;;;6.60;5.30;;;;;;;19.87;90.33;99829.08;182558;1235;45990;-84
2023/10/12 07:16:22;;;;;;;12.60;5.40;;;;;;;20.03;90.53;99836.14;182251;1235;46215;-84
2023/10/12 07:24:34;;;;;;;11.40;5.40;;;;;;;20.39;89.58;99846.23;182444;1236;60463;-84
2023/10/12 07:28:39;;;;;;;11.30;5.80;;;;;;;20.44;88.21;99850.98;182328;1235;46155;-84
2023/10/12 07:32:56;;;;;;;10.10;4.70;;;;;;;20.49;88.39;99856.84;182529;1235;46684;-84
2023/10/12 07:36:58;;;;;;;7.80;4.40;;;;;;;20.54;88.20;99856.93;182405;1235;45950;-84
2023/10/12 07:41:01;;;;;;;8.80;4.80;;;;;;;20.56;87.81;99863.92;182455;1235;45377;-84
2023/10/12 07:45:06;;;;;;;11.10;4.30;;;;;;;20.59;87.26;99874.83;182436;1235;58119;-84
2023/10/12 07:49:25;;;;;;;10.00;4.70;;;;;;;20.65;88.05;99878.73;182127;1235;46055;-84
2023/10/12 07:53:29;;;;;;;6.90;4.10;;;;;;;20.69;87.13;99882.72;182276;1240;46103;-84
2023/10/12 07:57:31;;;;;;;4.90;3.70;;;;;;;20.77;86.99;99887.20;182453;1236;45966;-83
2023/10/12 08:05:46;;;;;;;8.40;4.70;;;;;;;20.83;87.51;99898.17;183373;1235;58152;-84
2023/10/12 08:09:47;;;;;;;9.50;5.60;;;;;;;20.84;87.80;99902.80;182462;1235;44600;-85
2023/10/12 08:13:54;;;;;;;9.50;5.40;;;;;;;20.83;87.44;99901.71;182761;1239;46125;-84
2023/10/12 08:18:12;;;;;;;13.70;4.60;;;;;;;20.94;88.33;99910.44;182204;1235;46599;-85
2023/10/12 08:22:25;;;;;;;8.80;4.40;;;;;;;21.01;88.42;99917.48;181937;1235;46060;-84
2023/10/12 08:30:48;;;;;;;6.90;4.80;;;;;;;20.96;86.91;99926.21;182002;1235;46081;-85
2023/10/12 08:39:08;;;;;;;8.00;4.10;;;;;;;20.83;88.47;99932.44;182371;1236;45990;-84
2023/10/12 08:43:34;;;;;;;13.10;5.40;;;;;;;20.79;88.81;99926.20;182275;1235;45891;-85
2023/10/12 08:51:35;;;;;;;9.20;6.40;;;;;;;20.87;90.06;99939.66;182327;1238;45995;-85
2023/10/12 08:55:38;;;;;;;9.80;4.90;;;;;;;20.90;91.87;99947.02;182397;1235;45916;-85
2023/10/12 08:59:51;;;;;;;11.30;6.20;;;;;;;20.87;91.44;99948.98;182138;1235;45983;-84
2023/10/12 09:04:00;;;;;;;9.30;4.60;;;;;;;20.76;92.73;99953.31;182528;1235;46422;-85
2023/10/12 09:08:08;;;;;;;13.20;5.20;;;;;;;20.50;92.98;99950.39;182534;1235;58256;-84
2023/10/12 09:12:12;;;;;;;16.10;6.80;;;;;;;20.31;98.19;99963.33;182559;1240;46082;-84
2023/10/12 09:16:18;;;;;;;14.60;6.10;;;;;;;20.21;99.14;99966.83;182098;1235;45925;-84
2023/10/12 09:20:28;;;;;;;16.10;4.60;;;;;;;19.93;99.91;99975.78;181975;1235;46164;-84
2023/10/12 09:24:35;;;;;;;9.40;4.40;;;;;;;19.56;100.00;99985.41;182404;1235;45998;-85
2023/10/12 09:32:57;;;;;;;12.40;5.50;;;;;;;19.09;100.00;99995.64;182387;1235;46308;-85
2023/10/12 09:37:01;;;;;;;9.80;7.00;;;;;;;19.04;100.00;100002.88;182404;1235;45993;-85
2023/10/12 09:41:08;;;;;;;12.10;5.40;;;;;;;19.03;100.00;100007.13;182694;1238;46066;-84
2023/10/12 09:45:11;;;;;;;11.30;5.60;;;;;;;19.06;100.00;100011.83;182510;1235;45992;-85
2023/10/12 09:49:35;;;;;;;18.30;6.90;;;;;;;19.21;100.00;100014.82;182346;1235;59307;-84
2023/10/12 09:53:41;;;;;;;10.90;5.60;;;;;;;19.30;100.00;100021.06;182118;1238;45955;-84
2023/10/12 09:57:49;;;;;;;11.00;5.80;;;;;;;19.35;100.00;100024.11;182110;1236;46148;-85
2023/10/12 10:02:01;;;;;;;11.10;6.40;;;;;;;19.38;100.00;100019.59;182140;1235;45954;-84
2023/10/12 10:06:19;;;;;;;10.70;7.00;;;;;;;19.34;100.00;100017.05;182449;1235;46106;-85
2023/10/12 10:10:36;;;;;;;10.50;7.10;;;;;;;19.40;100.00;100025.95;182101;1235;57880;-85
2023/10/12 10:14:44;;;;;;;11.90;5.60;;;;;;;19.48;100.00;100029.66;183169;1235;46171;-85
2023/10/12 10:19:13;;;;;;;8.70;5.60;;;;;;;19.53;100.00;100025.27;183280;1236;46169;-85
2023/10/12 10:23:19;;;;;;;6.20;5.60;;;;;;;19.60;100.00;100028.98;182957;1235;46097;-85
2023/10/12 10:27:33;;;;;;;20.20;7.50;;;;;;;19.65;100.00;100038.21;182488;1234;45940;-86
2023/10/12 10:31:40;;;;;;;12.00;6.20;;;;;;;19.58;100.00;100043.07;182265;1234;58083;-85
2023/10/12 10:36:24;;;;;;;12.70;6.70;;;;;;;19.53;100.00;100033.96;182987;1238;46043;-86
2023/10/12 10:40:49;;;;;;;12.20;6.00;;;;;;;19.53;100.00;100035.14;182395;1235;45971;-86
2023/10/12 10:44:52;;;;;;;11.30;6.20;;;;;;;19.46;100.00;100040.95;182211;1235;46178;-86
2023/10/12 10:48:55;;;;;;;8.20;6.60;;;;;;;19.44;100.00;100043.17;182327;1235;44550;-86
2023/10/12 10:53:00;;;;;;;11.30;6.00;;;;;;;19.35;100.00;100040.33;182106;1235;59329;-86
2023/10/12 10:57:14;;;;;;;16.70;6.90;;;;;;;19.29;100.00;100042.92;182567;1238;46078;-86
2023/10/12 11:01:20;;;;;;;10.40;6.70;;;;;;;19.26;100.00;100045.34;182201;1235;46007;-86
2023/10/12 11:05:28;;;;;;;15.00;6.80;;;;;;;19.21;100.00;100041.58;182495;1235;46081;-86
2023/10/12 11:09:31;;;;;;;17.70;7.10;;;;;;;19.24;100.00;100042.45;182182;1235;45937;-86
2023/10/12 11:13:34;;;;;;;9.60;6.80;;;;;;;19.23;100.00;100036.65;182340;1237;57924;-86
2023/10/12 11:17:53;;;;;;;10.10;7.10;;;;;;;19.23;100.00;100032.71;182266;1235;46201;-86
2023/10/12 11:21:57;;;;;;;14.20;6.80;;;;;;;19.18;100.00;100035.66;182510;1235;44030;-86
2023/10/12 11:26:04;;;;;;;9.00;5.70;;;;;;;19.21;100.00;100035.68;182370;1236;46342;-86
2023/10/12 11:30:08;;;;;;;9.00;6.40;;;;;;;19.22;100.00;100031.55;182161;1237;46105;-85
2023/10/12 11:34:23;;;;;;;8.10;6.00;;;;;;;19.24;100.00;100028.13;182252;1235;59788;-86
2023/10/12 11:38:25;;;;;;;11.80;7.70;;;;;;;19.28;100.00;100024.95;182155;1234;46020;-85
2023/10/12 11:42:28;;;;;;;14.40;6.50;;;;;;;19.34;100.00;100022.06;182211;1238;46073;-86
2023/10/12 11:46:41;;;;;;;10.50;6.60;;;;;;;19.41;100.00;100024.55;182021;1238;46130;-86
2023/10/12 11:50:48;;;;;;;8.50;5.90;;;;;;;19.53;100.00;100025.80;182043;1235;46151;-86
2023/10/12 11:54:50;;;;;;;15.30;7.40;;;;;;;19.62;100.00;100022.44;182381;1238;57788;-85
2023/10/12 11:58:54;;;;;;;14.20;6.60;;;;;;;19.63;100.00;100026.73;182906;1235;46203;-87
2023/10/12 12:02:59;;;;;;;11.50;7.80;;;;;;;19.65;100.00;100026.75;182389;1235;46031;-86
2023/10/12 12:07:01;;;;;;;11.10;6.70;;;;;;;19.68;100.00;100020.11;182046;1235;46048;-86
2023/10/12 12:11:05;;;;;;;7.60;6.00;;;;;;;19.72;100.00;100012.91;182181;1235;45946;-86
2023/10/12 12:15:07;;;;;;;10.70;6.30;;;;;;;19.72;100.00;100016.27;182089;1235;58289;-86
2023/10/12 12:19:17;;;;;;;12.60;7.00;;;;;;;19.69;100.00;100016.09;182235;1235;45935;-86
2023/10/12 12:23:27;;;;;;;14.00;5.20;;;;;;;19.65;100.00;100019.52;182240;1238;46130;-85
2023/10/12 12:27:37;;;;;;;12.00;5.60;;;;;;;19.58;100.00;100017.84;182309;1234;45972;-85
2023/10/12 12:31:41;;;;;;;11.20;5.80;;;;;;;19.54;100.00;100024.61;182442;1235;45941;-86
2023/10/12 12:35:59;;;;;;;7.40;5.60;;;;;;;19.44;100.00;100015.99;182211;1234;58012;-85
2023/10/12 12:40:27;;;;;;;14.60;5.80;;;;;;;19.26;100.00;100012.69;182001;1237;45965;-85
2023/10/12 12:44:23;;;;;;;10.60;5.50;;;;;;;19.11;100.00;100013.38;182154;1235;45966;-85
2023/10/12 12:48:25;;;;;;;18.10;6.80;;;;;;;19.00;100.00;100023.09;182052;1238;46119;-85
2023/10/12 12:52:27;;;;;;;10.60;5.80;;;;;;;18.94;100.00;100028.61;182311;1235;46030;-85
2023/10/12 12:56:29;;;;;;;10.30;6.50;;;;;;;18.95;100.00;100032.27;182080;1238;59646;-85
2023/10/12 13:00:33;;;;;;;9.90;4.70;;;;;;;18.95;100.00;100036.09;182330;1235;46108;-86
2023/10/12 13:04:36;;;;;;;8.40;4.30;;;;;;;18.97;100.00;100035.29;183437;1235;46056;-88
2023/10/12 13:08:39;;;;;;;6.20;5.10;;;;;;;18.94;100.00;100035.52;183041;1235;46065;-84
2023/10/12 13:12:41;;;;;;;7.60;5.30;;;;;;;18.88;100.00;100032.67;182660;1235;46094;-84
2023/10/12 13:16:49;;;;;;;6.10;4.80;;;;;;;18.76;100.00;100042.92;183399;1235;56993;-86
2023/10/12 13:20:51;;;;;;;5.90;3.40;;;;;;;18.64;100.00;100049.70;183125;1237;46088;-85
2023/10/12 13:24:57;;;;;;;6.80;4.30;;;;;;;18.51;100.00;100056.19;183349;1235;46046;-84
2023/10/12 13:29:01;;;;;;;7.90;4.60;;;;;;;18.37;100.00;100059.86;183194;1238;46058;-86
2023/10/12 13:33:05;;;;;;;13.10;4.60;;;;;;;18.24;100.00;100056.05;183011;1235;46128;-87
2023/10/12 13:37:13;;;;;;;4.20;3.10;;;;;;;18.02;100.00;100063.73;184159;1238;58745;-90
2023/10/12 13:41:20;;;;;;;8.40;3.20;;;;;;;17.76;100.00;100072.49;184745;1234;46054;-90
2023/10/12 13:45:52;;;;;;;6.00;3.60;;;;;;;17.52;100.00;100072.54;184492;1238;45957;-89
2023/10/12 13:50:00;;;;;;;7.00;3.40;;;;;;;17.35;100.00;100075.38;184392;1235;45893;-90
2023/10/12 13:54:20;;;;;;;4.70;2.70;;;;;;;17.27;100.00;100083.21;184880;1236;45919;-90
2023/10/12 13:59:00;;;;;;;5.10;1.80;;;;;;;17.19;100.00;100076.80;185118;1237;59249;-91
2023/10/12 14:07:29;;;;;;;3.70;2.40;;;;;;;17.39;100.00;100070.55;186266;1233;43929;-70
2023/10/12 14:11:32;;;;;;;7.60;3.30;;;;;;;17.52;100.00;100070.23;185837;1234;43476;-70
2023/10/12 14:15:35;;;;;;;7.50;3.40;;;;;;;17.60;100.00;100071.08;185649;1234;43636;-69
2023/10/12 14:19:39;;;;;;;5.30;2.50;;;;;;;17.71;100.00;100072.02;185310;1234;57906;-70
2023/10/12 14:23:45;;;;;;;6.00;3.60;;;;;;;17.79;100.00;100073.71;185607;1234;45985;-64
2023/10/12 14:27:48;;;;;;;4.80;3.20;;;;;;;17.88;100.00;100078.97;185935;1233;46195;-65
2023/10/12 14:31:50;;;;;;;2.20;1.60;;;;;;;17.88;100.00;100085.50;185732;1234;92692;-78
2023/10/12 14:35:54;;;;;;;2.00;1.70;;;;;;;17.71;100.00;100085.57;185667;1237;45960;-78
2023/10/12 14:39:58;;;;;;;3.70;1.90;;;;;;;17.78;100.00;100086.46;185843;1233;89017;-87
2023/10/12 14:44:04;;;;;;;4.50;1.50;;;;;;;17.78;100.00;100083.71;185615;1234;45917;-85
2023/10/12 14:48:14;;;;;;;1.90;1.20;;;;;;;17.86;100.00;100084.45;185476;1239;44703;-83
2023/10/12 14:58:22;;;;;;;1.30;1.20;;;;;;;17.64;100.00;100095.02;185057;1235;46086;-61
2023/10/12 15:02:27;;;;;;;3.90;1.40;;;;;;;17.68;100.00;100091.17;184797;1239;59460;-61
2023/10/12 15:06:31;;;;;;;1.10;1.00;;;;;;;17.69;100.00;100085.86;185112;1235;43766;-61
2023/10/12 15:10:56;;;;;;;5.40;2.00;;;;;;;17.70;100.00;100086.45;184992;1235;44638;-61
2023/10/12 15:15:08;;;;;;;2.10;1.50;;;;;;;17.81;100.00;100094.10;184768;1235;45987;-61
2023/10/12 15:19:11;;;;;;;2.50;1.60;;;;;;;17.94;100.00;100091.57;184880;1235;43472;-62
2023/10/12 15:23:17;;;;;;;1.90;1.50;;;;;;;18.00;100.00;100089.85;184866;1235;59803;-61
2023/10/12 15:27:21;;;;;;;1.70;1.50;;;;;;;18.01;100.00;100090.42;184868;1235;45554;-62
2023/10/12 15:31:29;;;;;;;3.40;2.50;;;;;;;18.08;100.00;100082.99;185509;1237;43705;-61
2023/10/12 15:35:33;;;;;;;2.00;1.30;;;;;;;18.09;100.00;100084.50;185050;1235;43498;-61
2023/10/12 15:40:08;;;;;;;3.20;1.70;;;;;;;18.09;100.00;100088.44;184992;1235;43925;-61
2023/10/12 15:44:13;;;;;;;;;;;;;;;18.09;100.00;100082.89;184992;1235;58759;-61
2023/10/12 15:48:26;;;;;;;3.30;2.60;;;;;;;18.07;100.00;100080.20;185082;1237;44699;-61
2023/10/12 15:52:29;;;;;;;3.20;2.20;;;;;;;17.98;100.00;100083.23;184877;1235;44723;-61
2023/10/12 15:56:34;;;;;;;2.20;1.50;;;;;;;17.85;100.00;100095.13;184838;1235;45906;-61
2023/10/12 16:00:36;;;;;;;2.20;1.80;;;;;;;17.71;100.00;100095.27;184873;1235;45996;-62
2023/10/12 16:04:45;;;;;;;5.60;2.60;;;;;;;17.61;100.00;100095.58;184753;1236;59631;-61
2023/10/12 16:08:48;;;;;;;3.70;2.30;;;;;;;17.51;100.00;100095.41;184858;1236;45905;-61
2023/10/12 16:12:56;;;;;;;5.60;1.70;;;;;;;17.47;100.00;100094.44;184967;1235;43541;-61
2023/10/12 16:17:00;;;;;;;5.70;2.60;;;;;;;17.51;100.00;100094.56;184878;1237;44960;-61
2023/10/12 16:21:15;;;;;;;2.00;1.80;;;;;;;17.56;100.00;100100.38;184994;1239;46070;-61
2023/10/12 16:25:19;;;;;;;3.20;2.60;;;;;;;17.68;100.00;100107.15;184788;1236;58383;-61
2023/10/12 16:29:22;;;;;;;5.30;2.60;;;;;;;17.77;100.00;100111.86;185004;1235;46122;-61
2023/10/12 16:33:23;;;;;;;3.10;2.00;;;;;;;17.89;100.00;100117.52;185044;1235;43774;-61
2023/10/12 16:37:27;;;;;;;18.60;13.10;;;;;;;17.91;100.00;100120.41;184756;1235;45834;-61
2023/10/12 16:41:39;;;;;;;41.90;27.80;;;;;;;17.80;100.00;100121.66;184844;1239;45931;-62
2023/10/12 16:45:42;;;;;;;35.10;24.90;;;;;;;17.68;100.00;100113.89;185047;1235;58297;-61
2023/10/12 16:49:45;;;;;;;22.60;18.60;;;;;;;17.64;100.00;100115.05;184674;1235;44875;-61
2023/10/12 16:53:49;;;;;;;22.90;20.00;;;;;;;17.65;100.00;100118.91;184774;1235;43852;-61
2023/10/12 16:57:51;;;;;;;20.60;18.30;;;;;;;17.65;100.00;100117.34;184987;1235;44927;-61
2023/10/12 17:01:55;;;;;;;23.50;19.90;;;;;;;17.65;100.00;100120.60;184803;1237;43672;-62
2023/10/12 17:05:58;;;;;;;17.00;15.10;;;;;;;17.65;100.00;100124.33;184699;1236;58026;-62
2023/10/12 17:10:25;;;;;;;22.60;17.10;;;;;;;17.66;100.00;100125.10;184634;1236;43583;-61
2023/10/12 17:14:28;;;;;;;19.80;14.00;;;;;;;17.68;100.00;100135.11;184639;1235;45914;-62
2023/10/12 17:18:34;;;;;;;11.80;9.00;;;;;;;17.74;100.00;100130.24;184891;1235;43629;-62
2023/10/12 17:22:38;;;;;;;9.50;6.20;;;;;;;17.79;100.00;100129.30;185071;1235;45918;-61
2023/10/12 17:26:40;;;;;;;10.30;4.90;;;;;;;17.83;100.00;100130.41;185192;1235;57563;-62
2023/10/12 17:30:47;;;;;;;8.10;4.00;;;;;;;17.79;100.00;100129.67;184827;1235;46031;-61
2023/10/12 17:34:51;;;;;;;14.90;4.60;;;;;;;17.79;100.00;100129.70;184647;1236;45976;-61
2023/10/12 17:39:00;;;;;;;11.70;4.30;;;;;;;17.78;100.00;100127.89;185022;1235;43908;-62
2023/10/12 17:43:05;;;;;;;8.10;4.50;;;;;;;17.74;100.00;100130.64;184633;1237;43524;-65
2023/10/12 17:47:09;;;;;;;9.00;4.00;;;;;;;17.73;100.00;100135.79;184666;1237;57882;-65
2023/10/12 17:51:18;;;;;;;10.40;4.90;;;;;;;17.72;100.00;100137.17;184669;1237;45909;-65
2023/10/12 17:55:21;;;;;;;11.50;5.50;;;;;;;17.69;100.00;100141.47;184802;1236;44602;-65
2023/10/12 17:59:28;;;;;;;9.10;3.40;;;;;;;17.65;100.00;100148.38;184725;1235;46032;-65
2023/10/12 18:03:32;;;;;;;10.20;5.30;;;;;;;17.59;100.00;100150.15;184826;1237;45852;-64
2023/10/12 18:07:35;;;;;;;10.70;4.20;;;;;;;17.57;100.00;100144.41;184713;1237;58928;-65
2023/10/12 18:11:41;;;;;;;11.60;4.90;;;;;;;17.54;100.00;100147.95;185030;1236;45977;-66
2023/10/12 18:15:45;;;;;;;8.90;3.40;;;;;;;17.51;100.00;100158.33;184711;1238;46043;-65
2023/10/12 18:19:48;;;;;;;10.10;5.20;;;;;;;17.51;100.00;100158.73;184782;1237;46002;-65
2023/10/12 18:23:51;;;;;;;8.00;4.20;;;;;;;17.53;100.00;100156.16;182865;1239;2435950;-66
2023/10/12 18:27:54;;;;;;;8.30;4.60;;;;;;;17.52;100.00;100153.08;184854;1236;57829;-64
2023/10/12 18:31:59;;;;;;;12.00;5.40;;;;;;;17.52;100.00;100155.52;184987;1239;46331;-65
2023/10/12 18:36:06;;;;;;;10.00;4.30;;;;;;;17.56;100.00;100162.39;185014;1235;46013;-65
2023/10/12 18:40:19;;;;;;;10.50;4.70;;;;;;;17.61;100.00;100158.51;184774;1236;45893;-67
2023/10/12 18:44:27;;;;;;;9.80;5.90;;;;;;;17.63;100.00;100154.10;184949;1238;43747;-66
2023/10/12 18:48:41;;;;;;;7.80;3.80;;;;;;;17.63;100.00;100155.58;184750;1239;89097;-82
2023/10/12 18:52:44;;;;;;;17.80;6.50;;;;;;;17.67;100.00;100157.58;184118;1238;45925;-78
2023/10/12 18:56:46;;;;;;;6.20;3.90;;;;;;;17.72;100.00;100157.76;185052;1236;46016;-79
2023/10/12 19:00:53;;;;;;;8.70;3.80;;;;;;;17.74;100.00;100160.77;184220;1236;43576;-78
2023/10/12 19:04:55;;;;;;;11.90;4.40;;;;;;;17.74;100.00;100165.10;184498;1237;45921;-79
2023/10/12 19:08:58;;;;;;;11.00;4.50;;;;;;;17.75;100.00;100176.06;184278;1236;57907;-79
2023/10/12 19:13:00;;;;;;;13.10;5.70;;;;;;;17.77;100.00;100176.27;183779;1236;44177;-79
2023/10/12 19:17:22;;;;;;;8.50;4.00;;;;;;;17.76;100.00;100171.89;184464;1241;45916;-79
2023/10/12 19:21:24;;;;;;;9.40;5.40;;;;;;;17.76;100.00;100171.61;184599;1236;43959;-78
2023/10/12 19:25:25;;;;;;;8.30;5.30;;;;;;;17.79;100.00;100170.10;183964;1236;45966;-78
2023/10/12 19:29:27;;;;;;;10.60;4.50;;;;;;;17.79;100.00;100169.56;184357;1236;59336;-79
2023/10/12 19:33:32;;;;;;;10.90;5.40;;;;;;;17.78;100.00;100161.61;184956;1236;45910;-79
2023/10/12 19:37:38;;;;;;;12.00;5.80;;;;;;;17.78;100.00;100164.55;185292;1236;44003;-79
2023/10/12 19:41:40;;;;;;;11.30;5.30;;;;;;;17.82;100.00;100165.05;184865;1236;45981;-78
2023/10/12 19:45:42;;;;;;;9.50;5.20;;;;;;;17.84;100.00;100163.73;184381;1236;45546;-77
2023/10/12 19:49:45;;;;;;;13.40;4.90;;;;;;;17.81;100.00;100166.21;183689;1236;58117;-78
2023/10/12 19:53:49;;;;;;;7.90;5.10;;;;;;;17.79;100.00;100170.13;184077;1240;46229;-79
2023/10/12 19:57:53;;;;;;;8.30;5.70;;;;;;;17.78;100.00;100174.33;184095;1237;45825;-77
2023/10/12 20:01:56;;;;;;;9.20;5.20;;;;;;;17.75;100.00;100172.66;184143;1240;46167;-77
2023/10/12 20:06:04;;;;;;;13.60;5.10;;;;;;;17.69;100.00;100169.23;183267;1236;45837;-78
2023/10/12 20:10:07;;;;;;;7.00;5.10;;;;;;;17.66;100.00;100170.48;183653;1236;58296;-78